sensor_id;sensor_type;location;lat;lon;timestamp;P1;durP1;ratioP1;P2;durP2;ratioP2
12110;SDS011;6119;52.372;8.990;2024-02-16T00:00:20;2.00;;;1.03;;
12110;SDS011;6119;52.372;8.990;2024-02-16T00:03:07;2.60;;;1.43;;
12110;SDS011;6119;52.372;8.990;2024-02-16T00:05:54;2.07;;;1.37;;
12110;SDS011;6119;52.372;8.990;2024-02-16T00:08:41;2.43;;;1.30;;
12110;SDS011;6119;52.372;8.990;2024-02-16T00:11:27;1.50;;;1.20;;
12110;SDS011;6119;52.372;8.990;2024-02-16T00:14:14;2.23;;;1.20;;
12110;SDS011;6119;52.372;8.990;2024-02-16T00:17:01;3.53;;;1.33;;
12110;SDS011;6119;52.372;8.990;2024-02-16T00:19:48;3.33;;;1.10;;
12110;SDS011;6119;52.372;8.990;2024-02-16T00:22:35;2.77;;;1.30;;
12110;SDS011;6119;52.372;8.990;2024-02-16T00:25:22;1.80;;;1.37;;
12110;SDS011;6119;52.372;8.990;2024-02-16T00:28:08;5.83;;;1.20;;
12110;SDS011;6119;52.372;8.990;2024-02-16T00:30:55;2.43;;;1.10;;
12110;SDS011;6119;52.372;8.990;2024-02-16T00:33:43;2.23;;;1.03;;
12110;SDS011;6119;52.372;8.990;2024-02-16T00:36:30;3.10;;;1.30;;
12110;SDS011;6119;52.372;8.990;2024-02-16T00:39:19;1.63;;;1.30;;
12110;SDS011;6119;52.372;8.990;2024-02-16T00:42:07;1.40;;;1.00;;
12110;SDS011;6119;52.372;8.990;2024-02-16T00:44:54;1.20;;;1.10;;
12110;SDS011;6119;52.372;8.990;2024-02-16T00:47:40;1.80;;;1.23;;
12110;SDS011;6119;52.372;8.990;2024-02-16T00:50:28;2.20;;;1.40;;
12110;SDS011;6119;52.372;8.990;2024-02-16T00:53:15;3.17;;;1.17;;
12110;SDS011;6119;52.372;8.990;2024-02-16T00:56:02;4.13;;;1.47;;
12110;SDS011;6119;52.372;8.990;2024-02-16T00:58:48;2.20;;;1.13;;
12110;SDS011;6119;52.372;8.990;2024-02-16T01:01:35;2.33;;;1.20;;
12110;SDS011;6119;52.372;8.990;2024-02-16T01:04:22;1.67;;;1.17;;
12110;SDS011;6119;52.372;8.990;2024-02-16T01:07:10;2.47;;;1.37;;
12110;SDS011;6119;52.372;8.990;2024-02-16T01:09:57;4.73;;;1.57;;
12110;SDS011;6119;52.372;8.990;2024-02-16T01:12:44;4.30;;;1.40;;
12110;SDS011;6119;52.372;8.990;2024-02-16T01:15:31;2.13;;;1.37;;
12110;SDS011;6119;52.372;8.990;2024-02-16T01:18:18;2.20;;;1.40;;
12110;SDS011;6119;52.372;8.990;2024-02-16T01:21:05;2.23;;;1.40;;
12110;SDS011;6119;52.372;8.990;2024-02-16T01:23:53;1.60;;;1.27;;
12110;SDS011;6119;52.372;8.990;2024-02-16T01:26:40;1.57;;;1.43;;
12110;SDS011;6119;52.372;8.990;2024-02-16T01:29:26;2.97;;;1.53;;
12110;SDS011;6119;52.372;8.990;2024-02-16T01:32:13;4.07;;;1.57;;
12110;SDS011;6119;52.372;8.990;2024-02-16T01:35:00;2.33;;;1.20;;
12110;SDS011;6119;52.372;8.990;2024-02-16T01:37:47;1.20;;;1.10;;
12110;SDS011;6119;52.372;8.990;2024-02-16T01:40:35;1.13;;;1.03;;
12110;SDS011;6119;52.372;8.990;2024-02-16T01:43:22;2.97;;;1.20;;
12110;SDS011;6119;52.372;8.990;2024-02-16T01:46:08;2.10;;;1.13;;
12110;SDS011;6119;52.372;8.990;2024-02-16T01:48:55;5.63;;;1.40;;
12110;SDS011;6119;52.372;8.990;2024-02-16T01:51:42;2.63;;;1.30;;
12110;SDS011;6119;52.372;8.990;2024-02-16T01:54:30;3.33;;;1.60;;
12110;SDS011;6119;52.372;8.990;2024-02-16T01:57:19;2.30;;;1.43;;
12110;SDS011;6119;52.372;8.990;2024-02-16T02:00:06;5.17;;;1.40;;
12110;SDS011;6119;52.372;8.990;2024-02-16T02:02:54;4.23;;;1.87;;
12110;SDS011;6119;52.372;8.990;2024-02-16T02:05:45;2.57;;;1.43;;
12110;SDS011;6119;52.372;8.990;2024-02-16T02:08:32;3.07;;;1.50;;
12110;SDS011;6119;52.372;8.990;2024-02-16T02:11:19;2.27;;;1.30;;
12110;SDS011;6119;52.372;8.990;2024-02-16T02:14:07;2.50;;;1.40;;
12110;SDS011;6119;52.372;8.990;2024-02-16T02:16:53;3.00;;;1.30;;
12110;SDS011;6119;52.372;8.990;2024-02-16T02:19:44;3.87;;;1.40;;
12110;SDS011;6119;52.372;8.990;2024-02-16T02:22:32;2.40;;;1.27;;
12110;SDS011;6119;52.372;8.990;2024-02-16T02:25:19;4.17;;;1.47;;
12110;SDS011;6119;52.372;8.990;2024-02-16T02:28:09;2.30;;;1.20;;
12110;SDS011;6119;52.372;8.990;2024-02-16T02:30:56;2.80;;;1.83;;
12110;SDS011;6119;52.372;8.990;2024-02-16T02:33:42;2.23;;;1.30;;
12110;SDS011;6119;52.372;8.990;2024-02-16T02:36:29;3.10;;;1.20;;
12110;SDS011;6119;52.372;8.990;2024-02-16T02:39:17;1.63;;;1.27;;
12110;SDS011;6119;52.372;8.990;2024-02-16T02:42:04;5.93;;;1.60;;
12110;SDS011;6119;52.372;8.990;2024-02-16T02:44:51;2.93;;;1.50;;
12110;SDS011;6119;52.372;8.990;2024-02-16T02:47:38;2.87;;;1.97;;
12110;SDS011;6119;52.372;8.990;2024-02-16T02:50:24;4.80;;;1.60;;
12110;SDS011;6119;52.372;8.990;2024-02-16T02:53:12;2.03;;;1.40;;
12110;SDS011;6119;52.372;8.990;2024-02-16T02:56:00;3.23;;;1.43;;
12110;SDS011;6119;52.372;8.990;2024-02-16T02:58:46;3.40;;;1.23;;
12110;SDS011;6119;52.372;8.990;2024-02-16T03:01:33;3.87;;;1.50;;
12110;SDS011;6119;52.372;8.990;2024-02-16T03:04:21;2.13;;;1.40;;
12110;SDS011;6119;52.372;8.990;2024-02-16T03:07:08;2.60;;;1.70;;
12110;SDS011;6119;52.372;8.990;2024-02-16T03:09:55;2.87;;;1.50;;
12110;SDS011;6119;52.372;8.990;2024-02-16T03:12:43;9.13;;;1.73;;
12110;SDS011;6119;52.372;8.990;2024-02-16T03:15:29;1.60;;;1.40;;
12110;SDS011;6119;52.372;8.990;2024-02-16T03:18:16;4.67;;;1.70;;
12110;SDS011;6119;52.372;8.990;2024-02-16T03:21:03;1.83;;;1.20;;
12110;SDS011;6119;52.372;8.990;2024-02-16T03:23:50;2.07;;;1.60;;
12110;SDS011;6119;52.372;8.990;2024-02-16T03:26:36;1.60;;;1.30;;
12110;SDS011;6119;52.372;8.990;2024-02-16T03:29:24;3.10;;;1.43;;
12110;SDS011;6119;52.372;8.990;2024-02-16T03:32:11;3.70;;;1.30;;
12110;SDS011;6119;52.372;8.990;2024-02-16T03:34:58;2.33;;;1.50;;
12110;SDS011;6119;52.372;8.990;2024-02-16T03:37:45;2.43;;;1.43;;
12110;SDS011;6119;52.372;8.990;2024-02-16T03:40:32;3.40;;;1.50;;
12110;SDS011;6119;52.372;8.990;2024-02-16T03:43:19;2.47;;;1.63;;
12110;SDS011;6119;52.372;8.990;2024-02-16T03:46:06;5.70;;;1.33;;
12110;SDS011;6119;52.372;8.990;2024-02-16T03:48:53;2.30;;;1.30;;
12110;SDS011;6119;52.372;8.990;2024-02-16T03:51:40;1.40;;;1.30;;
12110;SDS011;6119;52.372;8.990;2024-02-16T03:54:27;2.00;;;1.37;;
12110;SDS011;6119;52.372;8.990;2024-02-16T03:57:14;3.50;;;1.70;;
12110;SDS011;6119;52.372;8.990;2024-02-16T04:00:02;2.70;;;1.47;;
12110;SDS011;6119;52.372;8.990;2024-02-16T04:02:52;3.57;;;1.50;;
12110;SDS011;6119;52.372;8.990;2024-02-16T04:05:38;3.33;;;1.33;;
12110;SDS011;6119;52.372;8.990;2024-02-16T04:08:25;3.40;;;1.50;;
12110;SDS011;6119;52.372;8.990;2024-02-16T04:11:12;2.17;;;1.30;;
12110;SDS011;6119;52.372;8.990;2024-02-16T04:14:00;2.87;;;1.40;;
12110;SDS011;6119;52.372;8.990;2024-02-16T04:16:47;2.50;;;1.50;;
12110;SDS011;6119;52.372;8.990;2024-02-16T04:19:35;2.43;;;1.30;;
12110;SDS011;6119;52.372;8.990;2024-02-16T04:22:23;2.83;;;1.40;;
12110;SDS011;6119;52.372;8.990;2024-02-16T04:25:09;3.83;;;1.30;;
12110;SDS011;6119;52.372;8.990;2024-02-16T04:27:56;2.00;;;1.47;;
12110;SDS011;6119;52.372;8.990;2024-02-16T04:30:42;2.83;;;1.30;;
12110;SDS011;6119;52.372;8.990;2024-02-16T04:33:28;3.43;;;1.40;;
12110;SDS011;6119;52.372;8.990;2024-02-16T04:36:17;4.27;;;1.53;;
12110;SDS011;6119;52.372;8.990;2024-02-16T04:39:03;4.23;;;1.77;;
12110;SDS011;6119;52.372;8.990;2024-02-16T04:41:50;2.53;;;1.50;;
12110;SDS011;6119;52.372;8.990;2024-02-16T04:44:38;3.43;;;1.60;;
12110;SDS011;6119;52.372;8.990;2024-02-16T04:47:25;2.00;;;1.17;;
12110;SDS011;6119;52.372;8.990;2024-02-16T04:50:12;1.47;;;1.30;;
12110;SDS011;6119;52.372;8.990;2024-02-16T04:53:00;1.77;;;1.67;;
12110;SDS011;6119;52.372;8.990;2024-02-16T04:55:47;3.73;;;1.50;;
12110;SDS011;6119;52.372;8.990;2024-02-16T04:58:34;1.73;;;1.20;;
12110;SDS011;6119;52.372;8.990;2024-02-16T05:01:21;1.63;;;1.10;;
12110;SDS011;6119;52.372;8.990;2024-02-16T05:04:08;2.30;;;1.63;;
12110;SDS011;6119;52.372;8.990;2024-02-16T05:06:55;1.97;;;1.27;;
12110;SDS011;6119;52.372;8.990;2024-02-16T05:09:44;2.87;;;1.20;;
12110;SDS011;6119;52.372;8.990;2024-02-16T05:12:31;1.23;;;1.10;;
12110;SDS011;6119;52.372;8.990;2024-02-16T05:15:19;2.10;;;1.00;;
12110;SDS011;6119;52.372;8.990;2024-02-16T05:18:05;2.13;;;1.30;;
12110;SDS011;6119;52.372;8.990;2024-02-16T05:20:52;3.17;;;1.60;;
12110;SDS011;6119;52.372;8.990;2024-02-16T05:23:39;2.03;;;1.40;;
12110;SDS011;6119;52.372;8.990;2024-02-16T05:26:27;5.40;;;1.73;;
12110;SDS011;6119;52.372;8.990;2024-02-16T05:29:13;2.40;;;1.43;;
12110;SDS011;6119;52.372;8.990;2024-02-16T05:32:00;1.37;;;1.20;;
12110;SDS011;6119;52.372;8.990;2024-02-16T05:34:46;3.57;;;1.20;;
12110;SDS011;6119;52.372;8.990;2024-02-16T05:37:34;3.07;;;1.73;;
12110;SDS011;6119;52.372;8.990;2024-02-16T05:40:21;1.97;;;1.50;;
12110;SDS011;6119;52.372;8.990;2024-02-16T05:43:11;2.17;;;1.97;;
12110;SDS011;6119;52.372;8.990;2024-02-16T05:45:57;4.47;;;1.70;;
12110;SDS011;6119;52.372;8.990;2024-02-16T05:48:44;2.80;;;1.50;;
12110;SDS011;6119;52.372;8.990;2024-02-16T05:51:34;2.77;;;1.33;;
12110;SDS011;6119;52.372;8.990;2024-02-16T05:54:21;2.00;;;1.33;;
12110;SDS011;6119;52.372;8.990;2024-02-16T05:57:08;2.13;;;1.20;;
12110;SDS011;6119;52.372;8.990;2024-02-16T05:59:56;2.27;;;1.20;;
12110;SDS011;6119;52.372;8.990;2024-02-16T06:02:45;4.00;;;1.40;;
12110;SDS011;6119;52.372;8.990;2024-02-16T06:05:31;1.40;;;1.30;;
12110;SDS011;6119;52.372;8.990;2024-02-16T06:08:18;1.43;;;1.33;;
12110;SDS011;6119;52.372;8.990;2024-02-16T06:11:06;2.03;;;1.33;;
12110;SDS011;6119;52.372;8.990;2024-02-16T06:13:53;3.63;;;1.93;;
12110;SDS011;6119;52.372;8.990;2024-02-16T06:16:41;2.73;;;1.90;;
12110;SDS011;6119;52.372;8.990;2024-02-16T06:19:28;3.30;;;2.00;;
12110;SDS011;6119;52.372;8.990;2024-02-16T06:22:16;4.90;;;2.00;;
12110;SDS011;6119;52.372;8.990;2024-02-16T06:25:03;4.87;;;3.27;;
12110;SDS011;6119;52.372;8.990;2024-02-16T06:27:50;3.50;;;1.90;;
12110;SDS011;6119;52.372;8.990;2024-02-16T06:30:37;3.40;;;2.10;;
12110;SDS011;6119;52.372;8.990;2024-02-16T06:33:25;2.73;;;2.10;;
12110;SDS011;6119;52.372;8.990;2024-02-16T06:36:12;3.60;;;2.70;;
12110;SDS011;6119;52.372;8.990;2024-02-16T06:38:59;5.77;;;3.53;;
12110;SDS011;6119;52.372;8.990;2024-02-16T06:41:46;3.27;;;2.10;;
12110;SDS011;6119;52.372;8.990;2024-02-16T06:44:34;3.40;;;1.93;;
12110;SDS011;6119;52.372;8.990;2024-02-16T06:47:20;2.33;;;1.47;;
12110;SDS011;6119;52.372;8.990;2024-02-16T06:50:10;2.53;;;1.70;;
12110;SDS011;6119;52.372;8.990;2024-02-16T06:52:57;5.20;;;1.43;;
12110;SDS011;6119;52.372;8.990;2024-02-16T06:55:44;9.07;;;2.23;;
12110;SDS011;6119;52.372;8.990;2024-02-16T06:58:31;3.43;;;1.90;;
12110;SDS011;6119;52.372;8.990;2024-02-16T07:01:18;3.13;;;1.93;;
12110;SDS011;6119;52.372;8.990;2024-02-16T07:04:05;1.83;;;1.60;;
12110;SDS011;6119;52.372;8.990;2024-02-16T07:06:53;1.90;;;1.60;;
12110;SDS011;6119;52.372;8.990;2024-02-16T07:09:40;2.53;;;1.70;;
12110;SDS011;6119;52.372;8.990;2024-02-16T07:12:27;1.70;;;1.53;;
12110;SDS011;6119;52.372;8.990;2024-02-16T07:15:14;2.37;;;1.70;;
12110;SDS011;6119;52.372;8.990;2024-02-16T07:18:00;3.87;;;1.63;;
12110;SDS011;6119;52.372;8.990;2024-02-16T07:20:49;2.23;;;1.70;;
12110;SDS011;6119;52.372;8.990;2024-02-16T07:23:37;3.90;;;1.70;;
12110;SDS011;6119;52.372;8.990;2024-02-16T07:26:24;2.50;;;1.80;;
12110;SDS011;6119;52.372;8.990;2024-02-16T07:29:11;3.43;;;1.67;;
12110;SDS011;6119;52.372;8.990;2024-02-16T07:32:02;5.13;;;1.87;;
12110;SDS011;6119;52.372;8.990;2024-02-16T07:34:49;2.30;;;1.50;;
12110;SDS011;6119;52.372;8.990;2024-02-16T07:37:36;3.70;;;1.63;;
12110;SDS011;6119;52.372;8.990;2024-02-16T07:40:24;3.43;;;1.60;;
12110;SDS011;6119;52.372;8.990;2024-02-16T07:43:11;2.67;;;1.87;;
12110;SDS011;6119;52.372;8.990;2024-02-16T07:45:58;3.83;;;1.80;;
12110;SDS011;6119;52.372;8.990;2024-02-16T07:48:44;2.47;;;1.63;;
12110;SDS011;6119;52.372;8.990;2024-02-16T07:51:31;1.83;;;1.53;;
12110;SDS011;6119;52.372;8.990;2024-02-16T07:54:18;2.13;;;1.70;;
12110;SDS011;6119;52.372;8.990;2024-02-16T07:57:06;4.20;;;1.70;;
12110;SDS011;6119;52.372;8.990;2024-02-16T07:59:53;4.37;;;1.70;;
12110;SDS011;6119;52.372;8.990;2024-02-16T08:02:40;4.47;;;1.77;;
12110;SDS011;6119;52.372;8.990;2024-02-16T08:05:28;1.93;;;1.40;;
12110;SDS011;6119;52.372;8.990;2024-02-16T08:08:15;3.33;;;1.90;;
12110;SDS011;6119;52.372;8.990;2024-02-16T08:11:02;2.40;;;1.70;;
12110;SDS011;6119;52.372;8.990;2024-02-16T08:13:50;4.37;;;1.80;;
12110;SDS011;6119;52.372;8.990;2024-02-16T08:16:37;3.10;;;2.10;;
12110;SDS011;6119;52.372;8.990;2024-02-16T08:19:25;3.33;;;1.43;;
12110;SDS011;6119;52.372;8.990;2024-02-16T08:22:19;3.93;;;1.93;;
12110;SDS011;6119;52.372;8.990;2024-02-16T08:25:07;2.17;;;1.50;;
12110;SDS011;6119;52.372;8.990;2024-02-16T08:27:54;5.57;;;1.90;;
12110;SDS011;6119;52.372;8.990;2024-02-16T08:30:43;3.13;;;1.70;;
12110;SDS011;6119;52.372;8.990;2024-02-16T08:33:30;4.60;;;2.20;;
12110;SDS011;6119;52.372;8.990;2024-02-16T08:36:18;1.90;;;1.50;;
12110;SDS011;6119;52.372;8.990;2024-02-16T08:39:06;2.43;;;1.80;;
12110;SDS011;6119;52.372;8.990;2024-02-16T08:41:53;3.57;;;1.97;;
12110;SDS011;6119;52.372;8.990;2024-02-16T08:44:40;6.77;;;1.97;;
12110;SDS011;6119;52.372;8.990;2024-02-16T08:47:29;4.03;;;1.50;;
12110;SDS011;6119;52.372;8.990;2024-02-16T08:50:17;2.47;;;1.97;;
12110;SDS011;6119;52.372;8.990;2024-02-16T08:53:04;3.10;;;1.50;;
12110;SDS011;6119;52.372;8.990;2024-02-16T08:55:51;2.90;;;1.80;;
12110;SDS011;6119;52.372;8.990;2024-02-16T08:58:37;3.33;;;2.10;;
12110;SDS011;6119;52.372;8.990;2024-02-16T09:01:31;4.03;;;1.63;;
12110;SDS011;6119;52.372;8.990;2024-02-16T09:04:19;3.47;;;1.83;;
12110;SDS011;6119;52.372;8.990;2024-02-16T09:07:06;3.37;;;1.50;;
12110;SDS011;6119;52.372;8.990;2024-02-16T09:09:53;3.07;;;1.70;;
12110;SDS011;6119;52.372;8.990;2024-02-16T09:12:41;2.37;;;1.83;;
12110;SDS011;6119;52.372;8.990;2024-02-16T09:15:27;6.10;;;1.80;;
12110;SDS011;6119;52.372;8.990;2024-02-16T09:18:14;2.60;;;1.50;;
12110;SDS011;6119;52.372;8.990;2024-02-16T09:21:03;2.53;;;1.53;;
12110;SDS011;6119;52.372;8.990;2024-02-16T09:23:49;1.97;;;1.50;;
12110;SDS011;6119;52.372;8.990;2024-02-16T09:26:36;3.77;;;1.40;;
12110;SDS011;6119;52.372;8.990;2024-02-16T09:29:23;3.23;;;1.60;;
12110;SDS011;6119;52.372;8.990;2024-02-16T09:32:09;2.67;;;1.83;;
12110;SDS011;6119;52.372;8.990;2024-02-16T09:34:56;3.27;;;1.63;;
12110;SDS011;6119;52.372;8.990;2024-02-16T09:37:44;2.20;;;1.77;;
12110;SDS011;6119;52.372;8.990;2024-02-16T09:40:31;2.67;;;1.57;;
12110;SDS011;6119;52.372;8.990;2024-02-16T09:43:23;2.10;;;1.70;;
12110;SDS011;6119;52.372;8.990;2024-02-16T09:46:11;2.37;;;1.60;;
12110;SDS011;6119;52.372;8.990;2024-02-16T09:48:58;2.90;;;1.70;;
12110;SDS011;6119;52.372;8.990;2024-02-16T09:51:48;2.77;;;1.63;;
12110;SDS011;6119;52.372;8.990;2024-02-16T09:54:36;2.93;;;1.57;;
12110;SDS011;6119;52.372;8.990;2024-02-16T09:57:24;1.93;;;1.70;;
12110;SDS011;6119;52.372;8.990;2024-02-16T10:00:11;3.37;;;1.90;;
12110;SDS011;6119;52.372;8.990;2024-02-16T10:03:00;5.23;;;1.90;;
12110;SDS011;6119;52.372;8.990;2024-02-16T10:05:47;2.23;;;1.60;;
12110;SDS011;6119;52.372;8.990;2024-02-16T10:08:34;2.20;;;1.60;;
12110;SDS011;6119;52.372;8.990;2024-02-16T10:11:33;3.47;;;1.77;;
12110;SDS011;6119;52.372;8.990;2024-02-16T10:14:23;2.77;;;1.50;;
12110;SDS011;6119;52.372;8.990;2024-02-16T10:17:10;2.63;;;1.70;;
12110;SDS011;6119;52.372;8.990;2024-02-16T10:20:03;2.60;;;1.40;;
12110;SDS011;6119;52.372;8.990;2024-02-16T10:23:01;3.90;;;1.77;;
12110;SDS011;6119;52.372;8.990;2024-02-16T10:25:51;2.27;;;1.60;;
12110;SDS011;6119;52.372;8.990;2024-02-16T10:28:41;3.87;;;1.70;;
12110;SDS011;6119;52.372;8.990;2024-02-16T10:31:31;3.87;;;1.60;;
12110;SDS011;6119;52.372;8.990;2024-02-16T10:34:18;3.00;;;1.80;;
12110;SDS011;6119;52.372;8.990;2024-02-16T10:37:08;5.17;;;1.80;;
12110;SDS011;6119;52.372;8.990;2024-02-16T10:39:56;4.63;;;1.80;;
12110;SDS011;6119;52.372;8.990;2024-02-16T10:42:44;3.73;;;1.80;;
12110;SDS011;6119;52.372;8.990;2024-02-16T10:45:34;4.13;;;1.60;;
12110;SDS011;6119;52.372;8.990;2024-02-16T10:48:21;3.20;;;1.70;;
12110;SDS011;6119;52.372;8.990;2024-02-16T10:51:09;3.27;;;2.03;;
12110;SDS011;6119;52.372;8.990;2024-02-16T10:53:57;3.40;;;1.90;;
12110;SDS011;6119;52.372;8.990;2024-02-16T10:56:46;6.57;;;2.07;;
12110;SDS011;6119;52.372;8.990;2024-02-16T10:59:37;3.50;;;2.00;;
12110;SDS011;6119;52.372;8.990;2024-02-16T11:02:28;3.67;;;1.97;;
12110;SDS011;6119;52.372;8.990;2024-02-16T11:05:18;4.30;;;2.17;;
12110;SDS011;6119;52.372;8.990;2024-02-16T11:08:11;4.43;;;2.07;;
12110;SDS011;6119;52.372;8.990;2024-02-16T11:10:59;4.47;;;2.20;;
12110;SDS011;6119;52.372;8.990;2024-02-16T11:13:49;5.07;;;2.30;;
12110;SDS011;6119;52.372;8.990;2024-02-16T11:16:43;4.07;;;1.93;;
12110;SDS011;6119;52.372;8.990;2024-02-16T11:19:31;5.43;;;2.30;;
12110;SDS011;6119;52.372;8.990;2024-02-16T11:22:19;5.07;;;2.33;;
12110;SDS011;6119;52.372;8.990;2024-02-16T11:25:07;7.43;;;2.30;;
12110;SDS011;6119;52.372;8.990;2024-02-16T11:27:54;4.27;;;2.00;;
12110;SDS011;6119;52.372;8.990;2024-02-16T11:30:41;4.23;;;2.17;;
12110;SDS011;6119;52.372;8.990;2024-02-16T11:33:28;3.17;;;2.33;;
12110;SDS011;6119;52.372;8.990;2024-02-16T11:36:16;3.83;;;2.40;;
12110;SDS011;6119;52.372;8.990;2024-02-16T11:39:11;8.50;;;2.27;;
12110;SDS011;6119;52.372;8.990;2024-02-16T11:42:02;6.03;;;2.33;;
12110;SDS011;6119;52.372;8.990;2024-02-16T11:44:50;3.53;;;2.47;;
12110;SDS011;6119;52.372;8.990;2024-02-16T11:47:38;6.80;;;2.20;;
12110;SDS011;6119;52.372;8.990;2024-02-16T11:50:26;5.97;;;2.67;;
12110;SDS011;6119;52.372;8.990;2024-02-16T11:53:16;6.27;;;2.27;;
12110;SDS011;6119;52.372;8.990;2024-02-16T11:56:05;3.50;;;2.20;;
12110;SDS011;6119;52.372;8.990;2024-02-16T11:58:52;3.20;;;2.30;;
12110;SDS011;6119;52.372;8.990;2024-02-16T12:01:47;6.90;;;2.90;;
12110;SDS011;6119;52.372;8.990;2024-02-16T12:04:35;5.13;;;2.50;;
12110;SDS011;6119;52.372;8.990;2024-02-16T12:07:36;6.47;;;2.90;;
12110;SDS011;6119;52.372;8.990;2024-02-16T12:10:27;6.23;;;2.70;;
12110;SDS011;6119;52.372;8.990;2024-02-16T12:13:15;4.70;;;2.77;;
12110;SDS011;6119;52.372;8.990;2024-02-16T12:16:03;6.93;;;2.90;;
12110;SDS011;6119;52.372;8.990;2024-02-16T12:19:01;6.10;;;3.83;;
12110;SDS011;6119;52.372;8.990;2024-02-16T12:21:49;14.63;;;8.13;;
12110;SDS011;6119;52.372;8.990;2024-02-16T12:24:37;7.47;;;3.20;;
12110;SDS011;6119;52.372;8.990;2024-02-16T12:27:25;5.10;;;3.47;;
12110;SDS011;6119;52.372;8.990;2024-02-16T12:30:12;14.37;;;4.23;;
12110;SDS011;6119;52.372;8.990;2024-02-16T12:33:00;4.37;;;2.60;;
12110;SDS011;6119;52.372;8.990;2024-02-16T12:35:48;6.27;;;2.77;;
12110;SDS011;6119;52.372;8.990;2024-02-16T12:38:34;5.70;;;2.60;;
12110;SDS011;6119;52.372;8.990;2024-02-16T12:41:21;4.33;;;2.43;;
12110;SDS011;6119;52.372;8.990;2024-02-16T12:44:09;6.20;;;2.90;;
12110;SDS011;6119;52.372;8.990;2024-02-16T12:46:56;6.50;;;3.10;;
12110;SDS011;6119;52.372;8.990;2024-02-16T12:49:42;7.07;;;3.40;;
12110;SDS011;6119;52.372;8.990;2024-02-16T12:52:29;8.17;;;3.23;;
12110;SDS011;6119;52.372;8.990;2024-02-16T12:55:24;4.63;;;2.83;;
12110;SDS011;6119;52.372;8.990;2024-02-16T12:58:11;10.67;;;5.97;;
12110;SDS011;6119;52.372;8.990;2024-02-16T13:01:00;7.90;;;3.93;;
12110;SDS011;6119;52.372;8.990;2024-02-16T13:03:58;8.97;;;3.83;;
12110;SDS011;6119;52.372;8.990;2024-02-16T13:06:45;5.43;;;3.60;;
12110;SDS011;6119;52.372;8.990;2024-02-16T13:09:32;5.77;;;3.57;;
12110;SDS011;6119;52.372;8.990;2024-02-16T13:12:19;8.40;;;3.33;;
12110;SDS011;6119;52.372;8.990;2024-02-16T13:15:09;7.60;;;4.60;;
12110;SDS011;6119;52.372;8.990;2024-02-16T13:18:13;7.67;;;4.30;;
12110;SDS011;6119;52.372;8.990;2024-02-16T13:21:00;7.40;;;3.87;;
12110;SDS011;6119;52.372;8.990;2024-02-16T13:23:47;7.20;;;4.17;;
12110;SDS011;6119;52.372;8.990;2024-02-16T13:26:34;7.10;;;4.87;;
12110;SDS011;6119;52.372;8.990;2024-02-16T13:29:20;9.27;;;4.03;;
12110;SDS011;6119;52.372;8.990;2024-02-16T13:32:07;7.83;;;3.60;;
12110;SDS011;6119;52.372;8.990;2024-02-16T13:34:55;9.90;;;5.73;;
12110;SDS011;6119;52.372;8.990;2024-02-16T13:37:42;9.83;;;4.97;;
12110;SDS011;6119;52.372;8.990;2024-02-16T13:40:28;7.07;;;4.03;;
12110;SDS011;6119;52.372;8.990;2024-02-16T13:43:15;5.83;;;4.60;;
12110;SDS011;6119;52.372;8.990;2024-02-16T13:46:02;8.63;;;4.40;;
12110;SDS011;6119;52.372;8.990;2024-02-16T13:48:49;5.80;;;4.87;;
12110;SDS011;6119;52.372;8.990;2024-02-16T13:51:38;7.77;;;4.07;;
12110;SDS011;6119;52.372;8.990;2024-02-16T13:54:25;10.03;;;4.63;;
12110;SDS011;6119;52.372;8.990;2024-02-16T13:57:11;7.47;;;4.83;;
12110;SDS011;6119;52.372;8.990;2024-02-16T13:59:58;7.57;;;4.87;;
12110;SDS011;6119;52.372;8.990;2024-02-16T14:02:45;8.50;;;5.63;;
12110;SDS011;6119;52.372;8.990;2024-02-16T14:05:31;6.53;;;4.50;;
12110;SDS011;6119;52.372;8.990;2024-02-16T14:08:20;10.00;;;5.90;;
12110;SDS011;6119;52.372;8.990;2024-02-16T14:11:07;9.27;;;5.57;;
12110;SDS011;6119;52.372;8.990;2024-02-16T14:13:54;7.37;;;5.80;;
12110;SDS011;6119;52.372;8.990;2024-02-16T14:16:40;6.83;;;4.73;;
12110;SDS011;6119;52.372;8.990;2024-02-16T14:19:27;8.50;;;5.60;;
12110;SDS011;6119;52.372;8.990;2024-02-16T14:22:15;7.17;;;5.60;;
12110;SDS011;6119;52.372;8.990;2024-02-16T14:25:03;7.30;;;6.00;;
12110;SDS011;6119;52.372;8.990;2024-02-16T14:27:50;7.20;;;5.70;;
12110;SDS011;6119;52.372;8.990;2024-02-16T14:30:36;8.97;;;6.60;;
12110;SDS011;6119;52.372;8.990;2024-02-16T14:33:24;8.10;;;6.13;;
12110;SDS011;6119;52.372;8.990;2024-02-16T14:36:18;10.50;;;6.50;;
12110;SDS011;6119;52.372;8.990;2024-02-16T14:39:05;8.83;;;6.47;;
12110;SDS011;6119;52.372;8.990;2024-02-16T14:41:55;8.17;;;6.40;;
12110;SDS011;6119;52.372;8.990;2024-02-16T14:44:41;8.47;;;5.97;;
12110;SDS011;6119;52.372;8.990;2024-02-16T14:47:28;11.97;;;6.63;;
12110;SDS011;6119;52.372;8.990;2024-02-16T14:50:15;9.77;;;5.57;;
12110;SDS011;6119;52.372;8.990;2024-02-16T14:53:03;9.00;;;6.20;;
12110;SDS011;6119;52.372;8.990;2024-02-16T14:55:50;7.43;;;5.37;;
12110;SDS011;6119;52.372;8.990;2024-02-16T14:58:38;8.23;;;5.70;;
12110;SDS011;6119;52.372;8.990;2024-02-16T15:01:25;8.13;;;5.53;;
12110;SDS011;6119;52.372;8.990;2024-02-16T15:04:11;7.80;;;5.47;;
12110;SDS011;6119;52.372;8.990;2024-02-16T15:06:58;8.50;;;6.00;;
12110;SDS011;6119;52.372;8.990;2024-02-16T15:09:44;8.60;;;5.90;;
12110;SDS011;6119;52.372;8.990;2024-02-16T15:12:31;7.47;;;5.83;;
12110;SDS011;6119;52.372;8.990;2024-02-16T15:15:19;8.37;;;5.73;;
12110;SDS011;6119;52.372;8.990;2024-02-16T15:18:06;8.40;;;4.97;;
12110;SDS011;6119;52.372;8.990;2024-02-16T15:20:54;7.67;;;5.57;;
12110;SDS011;6119;52.372;8.990;2024-02-16T15:23:41;9.43;;;5.47;;
12110;SDS011;6119;52.372;8.990;2024-02-16T15:26:27;9.23;;;4.57;;
12110;SDS011;6119;52.372;8.990;2024-02-16T15:29:15;5.43;;;4.40;;
12110;SDS011;6119;52.372;8.990;2024-02-16T15:32:03;5.77;;;3.90;;
12110;SDS011;6119;52.372;8.990;2024-02-16T15:34:50;7.23;;;4.87;;
12110;SDS011;6119;52.372;8.990;2024-02-16T15:37:39;6.67;;;4.00;;
12110;SDS011;6119;52.372;8.990;2024-02-16T15:40:27;5.33;;;4.53;;
12110;SDS011;6119;52.372;8.990;2024-02-16T15:43:14;7.57;;;4.50;;
12110;SDS011;6119;52.372;8.990;2024-02-16T15:46:02;8.80;;;4.00;;
12110;SDS011;6119;52.372;8.990;2024-02-16T15:48:50;5.40;;;3.77;;
12110;SDS011;6119;52.372;8.990;2024-02-16T15:51:37;7.57;;;4.00;;
12110;SDS011;6119;52.372;8.990;2024-02-16T15:54:25;6.73;;;3.70;;
12110;SDS011;6119;52.372;8.990;2024-02-16T15:57:12;4.07;;;3.63;;
12110;SDS011;6119;52.372;8.990;2024-02-16T15:59:59;6.10;;;3.83;;
12110;SDS011;6119;52.372;8.990;2024-02-16T16:02:46;6.23;;;3.80;;
12110;SDS011;6119;52.372;8.990;2024-02-16T16:05:34;5.27;;;3.70;;
12110;SDS011;6119;52.372;8.990;2024-02-16T16:08:20;6.03;;;3.77;;
12110;SDS011;6119;52.372;8.990;2024-02-16T16:11:07;6.20;;;4.20;;
12110;SDS011;6119;52.372;8.990;2024-02-16T16:13:53;7.13;;;4.10;;
12110;SDS011;6119;52.372;8.990;2024-02-16T16:16:40;5.77;;;3.90;;
12110;SDS011;6119;52.372;8.990;2024-02-16T16:19:26;5.37;;;4.37;;
12110;SDS011;6119;52.372;8.990;2024-02-16T16:22:15;5.23;;;4.07;;
12110;SDS011;6119;52.372;8.990;2024-02-16T16:25:02;5.33;;;4.07;;
12110;SDS011;6119;52.372;8.990;2024-02-16T16:27:49;8.90;;;4.17;;
12110;SDS011;6119;52.372;8.990;2024-02-16T16:30:36;5.30;;;4.10;;
12110;SDS011;6119;52.372;8.990;2024-02-16T16:33:23;5.17;;;3.90;;
12110;SDS011;6119;52.372;8.990;2024-02-16T16:36:10;6.97;;;4.73;;
12110;SDS011;6119;52.372;8.990;2024-02-16T16:39:00;6.77;;;4.43;;
12110;SDS011;6119;52.372;8.990;2024-02-16T16:41:49;6.23;;;4.20;;
12110;SDS011;6119;52.372;8.990;2024-02-16T16:44:39;7.63;;;5.37;;
12110;SDS011;6119;52.372;8.990;2024-02-16T16:47:25;6.30;;;4.30;;
12110;SDS011;6119;52.372;8.990;2024-02-16T16:50:12;5.63;;;5.03;;
12110;SDS011;6119;52.372;8.990;2024-02-16T16:53:04;5.80;;;4.20;;
12110;SDS011;6119;52.372;8.990;2024-02-16T16:55:52;5.57;;;4.67;;
12110;SDS011;6119;52.372;8.990;2024-02-16T16:58:39;6.43;;;4.57;;
12110;SDS011;6119;52.372;8.990;2024-02-16T17:01:25;6.93;;;4.00;;
12110;SDS011;6119;52.372;8.990;2024-02-16T17:04:12;4.80;;;4.30;;